createdAt,value
2022-10-05T00:01:25.981Z,11.95
2022-10-05T00:04:01.139Z,11.86
2022-10-05T00:06:30.837Z,11.77
2022-10-05T00:09:02.156Z,11.62
2022-10-05T00:11:30.278Z,11.61
2022-10-05T00:13:59.547Z,11.65
2022-10-05T00:16:27.965Z,11.48
2022-10-05T00:18:56.185Z,11.41
2022-10-05T00:21:26.778Z,11.62
2022-10-05T00:23:59.795Z,11.82
2022-10-05T00:26:34.133Z,11.98
2022-10-05T00:29:03.867Z,12.02
2022-10-05T00:31:34.077Z,12.07
2022-10-05T00:34:02.340Z,12.12
2022-10-05T00:36:30.535Z,12.13
2022-10-05T00:39:01.981Z,12.17
2022-10-05T00:41:41.441Z,12.21
2022-10-05T00:44:25.979Z,12.24
2022-10-05T00:46:58.511Z,12.29
2022-10-05T00:49:50.306Z,12.31
2022-10-05T00:52:28.697Z,12.35
2022-10-05T00:55:04.705Z,12.37
2022-10-05T00:57:45.735Z,12.38
2022-10-05T01:00:17.186Z,12.33
2022-10-05T01:02:55.662Z,12.31
2022-10-05T01:05:43.732Z,12.34
2022-10-05T01:08:24.619Z,12.21
2022-10-05T01:11:03.448Z,12.10
2022-10-05T01:13:42.775Z,11.99
2022-10-05T01:16:16.861Z,11.98
2022-10-05T01:18:51.232Z,11.84
2022-10-05T01:21:22.216Z,11.88
2022-10-05T01:24:21.538Z,11.90
2022-10-05T01:27:16.780Z,11.95
2022-10-05T01:29:51.029Z,11.96
2022-10-05T01:32:26.362Z,11.99
2022-10-05T01:35:02.722Z,12.00
2022-10-05T01:37:41.432Z,11.96
2022-10-05T01:40:17.918Z,11.92
2022-10-05T01:42:58.477Z,11.95
2022-10-05T01:45:37.657Z,11.87
2022-10-05T01:48:10.479Z,11.84
2022-10-05T01:50:49.090Z,11.78
2022-10-05T01:53:29.379Z,11.77
2022-10-05T01:56:07.316Z,11.80
2022-10-05T01:58:43.793Z,11.76
2022-10-05T02:01:22.194Z,11.74
2022-10-05T02:03:57.030Z,11.73
2022-10-05T02:06:29.159Z,11.72
2022-10-05T02:09:05.066Z,11.79
2022-10-05T02:11:35.476Z,11.72
2022-10-05T02:14:08.621Z,11.67
2022-10-05T02:16:42.134Z,11.65
2022-10-05T02:19:16.404Z,11.55
2022-10-05T02:21:49.079Z,11.43
2022-10-05T02:24:23.039Z,11.46
2022-10-05T02:26:53.486Z,11.45
2022-10-05T02:29:25.778Z,11.38
2022-10-05T02:31:58.524Z,11.39
2022-10-05T02:34:31.118Z,11.33
2022-10-05T02:37:16.926Z,11.30
2022-10-05T02:39:51.555Z,11.26
2022-10-05T02:42:30.338Z,11.24
2022-10-05T02:45:08.803Z,11.17
2022-10-05T02:47:48.268Z,11.16
2022-10-05T02:50:27.125Z,11.11
2022-10-05T02:53:05.989Z,11.02
2022-10-05T02:55:40.202Z,11.05
2022-10-05T02:58:15.229Z,11.01
2022-10-05T03:00:49.207Z,10.98
2022-10-05T03:03:28.938Z,10.98
2022-10-05T03:06:01.719Z,10.92
2022-10-05T03:08:37.946Z,10.82
2022-10-05T03:11:14.521Z,10.82
2022-10-05T03:13:50.935Z,10.73
2022-10-05T03:16:36.566Z,10.79
2022-10-05T03:19:23.412Z,10.78
2022-10-05T03:22:00.367Z,10.69
2022-10-05T03:24:56.537Z,10.66
2022-10-05T03:27:36.850Z,10.61
2022-10-05T03:30:12.594Z,10.57
2022-10-05T03:32:54.196Z,10.55
2022-10-05T03:35:31.664Z,10.49
2022-10-05T03:38:09.468Z,10.48
2022-10-05T03:40:45.962Z,10.46
2022-10-05T03:43:37.966Z,10.48
2022-10-05T03:46:10.024Z,10.43
2022-10-05T03:48:45.694Z,10.38
2022-10-05T03:51:22.942Z,10.36
2022-10-05T03:53:58.169Z,10.36
2022-10-05T03:56:34.105Z,10.29
2022-10-05T03:59:09.534Z,10.25
2022-10-05T04:01:44.237Z,10.24
2022-10-05T04:04:19.437Z,10.21
2022-10-05T04:06:51.650Z,10.21
2022-10-05T04:09:27.450Z,10.16
2022-10-05T04:12:02.810Z,10.10
2022-10-05T04:14:35.811Z,10.16
2022-10-05T04:17:10.948Z,10.23
2022-10-05T04:19:45.211Z,10.19
2022-10-05T04:22:19.517Z,10.20
2022-10-05T04:24:50.726Z,10.22
2022-10-05T04:27:23.424Z,10.29
2022-10-05T04:29:59.471Z,10.40
2022-10-05T04:32:36.894Z,10.45
2022-10-05T04:35:21.437Z,10.49
2022-10-05T04:37:57.606Z,10.58
2022-10-05T04:40:40.137Z,10.74
2022-10-05T04:43:14.411Z,10.88
2022-10-05T04:46:08.122Z,11.02
2022-10-05T04:48:51.837Z,11.13
2022-10-05T04:51:33.674Z,11.25
2022-10-05T04:54:13.597Z,11.36
2022-10-05T04:56:46.552Z,11.51
2022-10-05T04:59:36.665Z,11.67
2022-10-05T05:02:15.467Z,11.84
2022-10-05T05:05:22.050Z,11.86
2022-10-05T05:07:58.471Z,11.87
2022-10-05T05:11:05.771Z,11.92
2022-10-05T05:13:48.478Z,11.87
2022-10-05T05:16:25.506Z,11.86
2022-10-05T05:19:17.431Z,11.85
2022-10-05T05:21:54.447Z,12.00
2022-10-05T05:24:29.634Z,11.87
2022-10-05T05:27:14.300Z,11.97
2022-10-05T05:29:55.435Z,12.21
2022-10-05T05:32:37.235Z,12.23
2022-10-05T05:35:24.929Z,12.27
2022-10-05T05:38:00.822Z,12.27
2022-10-05T05:40:33.766Z,12.30
2022-10-05T05:43:08.006Z,12.22
2022-10-05T05:45:42.618Z,12.04
2022-10-05T05:48:18.343Z,12.09
2022-10-05T05:50:57.596Z,12.14
2022-10-05T05:53:33.136Z,12.03
2022-10-05T05:56:07.984Z,12.09
2022-10-05T05:58:46.019Z,12.14
2022-10-05T06:01:32.873Z,11.98
2022-10-05T06:04:08.496Z,12.13
2022-10-05T06:06:42.439Z,12.08
2022-10-05T06:09:18.903Z,12.06
2022-10-05T06:11:51.641Z,12.37
2022-10-05T06:14:26.374Z,12.13
2022-10-05T06:17:00.348Z,12.18
2022-10-05T06:19:30.258Z,12.11
2022-10-05T06:22:04.894Z,11.88
2022-10-05T06:24:38.810Z,11.84
2022-10-05T06:27:28.081Z,11.92
2022-10-05T06:30:06.132Z,11.78
2022-10-05T06:32:43.388Z,11.67
2022-10-05T06:35:25.772Z,11.60
2022-10-05T06:38:12.453Z,11.75
2022-10-05T06:40:58.894Z,11.85
2022-10-05T06:43:48.463Z,11.85
2022-10-05T06:46:24.077Z,11.96
2022-10-05T06:49:19.647Z,12.10
2022-10-05T06:51:54.018Z,12.25
2022-10-05T06:54:48.009Z,12.36
2022-10-05T06:57:36.935Z,12.57
2022-10-05T07:00:13.483Z,12.88
2022-10-05T07:02:49.934Z,13.10
2022-10-05T07:05:44.989Z,13.22
2022-10-05T07:08:17.036Z,13.43
2022-10-05T07:11:00.151Z,13.57
2022-10-05T07:13:47.254Z,13.60
2022-10-05T07:16:26.507Z,13.66
2022-10-05T07:19:10.228Z,13.99
2022-10-05T07:21:47.132Z,14.34
2022-10-05T07:24:29.343Z,14.37
2022-10-05T07:27:06.946Z,14.42
2022-10-05T07:29:44.751Z,14.80
2022-10-05T07:32:28.899Z,15.04
2022-10-05T07:35:06.185Z,15.00
2022-10-05T07:38:02.756Z,15.09
2022-10-05T07:40:39.450Z,15.17
2022-10-05T07:43:20.443Z,14.99
2022-10-05T07:45:56.863Z,15.02
2022-10-05T07:48:33.342Z,15.18
2022-10-05T07:51:08.171Z,14.97
2022-10-05T07:53:40.617Z,15.00
2022-10-05T07:56:17.279Z,15.40
2022-10-05T07:58:49.272Z,15.66
2022-10-05T08:01:23.618Z,16.01
2022-10-05T08:03:57.083Z,15.92
2022-10-05T08:06:51.627Z,16.02
2022-10-05T08:09:37.817Z,16.07
2022-10-05T08:12:22.805Z,16.36
2022-10-05T08:14:57.056Z,16.39
2022-10-05T08:17:39.145Z,16.20
2022-10-05T08:20:29.672Z,16.36
2022-10-05T08:23:07.122Z,16.57
2022-10-05T08:25:47.577Z,16.45
2022-10-05T08:28:22.782Z,16.54
2022-10-05T08:30:57.339Z,16.79
2022-10-05T08:33:29.295Z,16.73
2022-10-05T08:36:08.432Z,16.88
2022-10-05T08:38:38.935Z,16.86
2022-10-05T08:41:46.133Z,16.85
2022-10-05T08:44:51.636Z,16.85
2022-10-05T08:47:52.184Z,17.11
2022-10-05T08:50:31.267Z,16.86
2022-10-05T08:53:22.763Z,16.99
2022-10-05T08:56:05.621Z,17.06
2022-10-05T08:58:58.111Z,17.14
2022-10-05T09:01:37.226Z,16.97
2022-10-05T09:04:28.261Z,17.16
2022-10-05T09:07:39.466Z,17.30
2022-10-05T09:10:37.127Z,17.35
2022-10-05T09:13:51.158Z,17.20
2022-10-05T09:16:45.807Z,17.44
2022-10-05T09:19:50.998Z,17.62
2022-10-05T09:22:36.091Z,17.76
2022-10-05T09:25:19.413Z,17.92
2022-10-05T09:27:56.205Z,18.02
2022-10-05T09:30:41.488Z,18.13
2022-10-05T09:33:56.841Z,18.17
2022-10-05T09:36:56.185Z,18.06
2022-10-05T09:40:05.984Z,18.02
2022-10-05T09:42:51.225Z,18.16
2022-10-05T09:45:37.549Z,18.13
2022-10-05T09:48:46.987Z,17.96
2022-10-05T09:51:51.846Z,18.01
2022-10-05T09:54:52.844Z,17.97
2022-10-05T09:57:52.408Z,18.13
2022-10-05T10:00:26.740Z,18.17
2022-10-05T10:03:27.615Z,18.12
2022-10-05T10:06:30.168Z,17.99
2022-10-05T10:09:28.053Z,18.11
2022-10-05T10:12:24.294Z,18.05
2022-10-05T10:15:31.182Z,17.98
2022-10-05T10:18:32.146Z,17.65
2022-10-05T10:21:20.012Z,17.75
2022-10-05T10:24:02.684Z,17.85
2022-10-05T10:27:02.908Z,17.59
2022-10-05T10:30:00.795Z,17.69
2022-10-05T10:33:11.831Z,17.85
2022-10-05T10:35:43.478Z,17.75
2022-10-05T10:38:28.986Z,17.67
2022-10-05T10:41:29.973Z,17.66
2022-10-05T10:44:30.935Z,17.43
2022-10-05T10:47:36.081Z,17.48
2022-10-05T10:50:37.630Z,17.50
2022-10-05T10:53:44.514Z,17.65
2022-10-05T10:56:31.029Z,17.74
2022-10-05T10:59:29.255Z,17.80
2022-10-05T11:02:48.877Z,17.71
2022-10-05T11:05:53.910Z,17.79
2022-10-05T11:09:04.268Z,17.80
2022-10-05T11:12:12.563Z,17.87
2022-10-05T11:14:58.749Z,17.47
2022-10-05T11:17:55.189Z,17.43
2022-10-05T11:20:59.382Z,17.36
2022-10-05T11:23:48.509Z,17.56
2022-10-05T11:26:36.907Z,17.51
2022-10-05T11:29:55.437Z,17.33
2022-10-05T11:33:01.200Z,17.25
2022-10-05T11:35:52.292Z,17.53
2022-10-05T11:38:50.217Z,17.57
2022-10-05T11:41:42.702Z,17.49
2022-10-05T11:44:39.650Z,17.55
2022-10-05T11:47:19.722Z,17.57
2022-10-05T11:49:55.097Z,17.64
2022-10-05T11:52:28.693Z,17.62
2022-10-05T11:55:24.673Z,17.66
2022-10-05T11:57:56.207Z,17.70
2022-10-05T12:00:26.135Z,17.58
2022-10-05T12:03:17.595Z,17.53
2022-10-05T12:06:04.052Z,17.51
2022-10-05T12:08:45.398Z,17.57
2022-10-05T12:11:33.027Z,17.57
2022-10-05T12:14:08.238Z,17.53
2022-10-05T12:16:44.384Z,17.52
2022-10-05T12:19:17.708Z,17.62
2022-10-05T12:21:50.325Z,17.69
2022-10-05T12:24:28.190Z,17.76
2022-10-05T12:27:02.738Z,17.75
2022-10-05T12:29:43.242Z,17.69
2022-10-05T12:32:18.597Z,17.69
2022-10-05T12:35:01.490Z,17.61
2022-10-05T12:37:43.396Z,17.42
2022-10-05T12:40:38.890Z,17.39
2022-10-05T12:43:19.827Z,17.28
2022-10-05T12:46:01.433Z,17.16
2022-10-05T12:49:03.008Z,17.14
2022-10-05T12:51:42.487Z,17.09
2022-10-05T12:54:18.611Z,17.07
2022-10-05T12:56:55.542Z,17.05
2022-10-05T12:59:36.146Z,17.12
2022-10-05T13:02:16.171Z,17.15
2022-10-05T13:04:52.400Z,17.18
2022-10-05T13:07:49.618Z,17.19
2022-10-05T13:10:29.246Z,17.15
2022-10-05T13:13:15.659Z,17.18
2022-10-05T13:15:53.346Z,17.18
2022-10-05T13:18:31.669Z,17.13
2022-10-05T13:21:07.400Z,17.23
2022-10-05T13:23:57.682Z,17.17
2022-10-05T13:26:32.844Z,17.15
2022-10-05T13:29:14.334Z,17.06
2022-10-05T13:31:47.956Z,17.02
2022-10-05T13:34:25.421Z,17.05
2022-10-05T13:37:05.978Z,17.12
2022-10-05T13:39:55.533Z,17.13
2022-10-05T13:42:33.437Z,17.13
2022-10-05T13:45:12.957Z,17.06
2022-10-05T13:47:54.476Z,17.05
2022-10-05T13:50:29.795Z,17.02
2022-10-05T13:53:08.779Z,16.98
2022-10-05T13:55:46.314Z,16.94
2022-10-05T13:58:26.469Z,16.93
2022-10-05T14:00:59.203Z,16.74
2022-10-05T14:03:31.516Z,16.79
2022-10-05T14:06:01.794Z,16.61
2022-10-05T14:08:33.636Z,16.51
2022-10-05T14:11:22.517Z,16.57
2022-10-05T14:13:52.218Z,16.47
2022-10-05T14:16:23.373Z,16.33
2022-10-05T14:18:55.315Z,16.24
2022-10-05T14:21:25.232Z,16.21
2022-10-05T14:23:54.288Z,16.24
2022-10-05T14:26:33.827Z,16.05
2022-10-05T14:29:04.215Z,16.00
2022-10-05T14:31:36.514Z,16.00
2022-10-05T14:34:31.956Z,15.98
2022-10-05T14:37:04.833Z,15.97
2022-10-05T14:39:35.884Z,15.91
2022-10-05T14:42:15.101Z,15.84
2022-10-05T14:44:43.334Z,15.68
2022-10-05T14:47:22.741Z,15.64
2022-10-05T14:50:10.870Z,15.55
2022-10-05T14:52:41.238Z,15.46
2022-10-05T14:55:44.859Z,15.42
2022-10-05T14:58:26.208Z,15.33
2022-10-05T15:01:00.284Z,15.31
2022-10-05T15:03:49.741Z,15.27
2022-10-05T15:06:28.858Z,15.21
2022-10-05T15:09:32.487Z,15.21
2022-10-05T15:12:03.244Z,15.18
2022-10-05T15:14:35.379Z,15.12
2022-10-05T15:17:06.059Z,15.06
2022-10-05T15:19:49.084Z,15.02
2022-10-05T15:22:41.377Z,14.96
2022-10-05T15:25:16.195Z,14.89
2022-10-05T15:28:07.472Z,14.82
2022-10-05T15:30:39.594Z,14.77
2022-10-05T15:33:18.285Z,14.70
2022-10-05T15:36:10.681Z,14.62
2022-10-05T15:39:04.810Z,14.59
2022-10-05T15:41:47.223Z,14.60
2022-10-05T15:44:26.146Z,14.56
2022-10-05T15:46:58.309Z,14.60
2022-10-05T15:49:38.227Z,14.76
2022-10-05T15:52:19.813Z,14.69
2022-10-05T15:55:22.235Z,14.74
2022-10-05T15:58:09.063Z,14.61
2022-10-05T16:00:43.490Z,14.51
2022-10-05T16:03:21.590Z,14.40
2022-10-05T16:06:12.627Z,14.42
2022-10-05T16:08:58.627Z,14.46
2022-10-05T16:11:50.538Z,14.41
2022-10-05T16:14:33.252Z,14.24
2022-10-05T16:17:15.950Z,14.13
2022-10-05T16:19:55.452Z,14.05
2022-10-05T16:22:29.127Z,13.89
2022-10-05T16:25:09.002Z,13.83
2022-10-05T16:27:49.870Z,13.89
2022-10-05T16:30:21.207Z,13.79
2022-10-05T16:32:59.099Z,13.72
2022-10-05T16:35:44.366Z,13.63
2022-10-05T16:38:25.028Z,13.58
2022-10-05T16:41:02.327Z,13.54
2022-10-05T16:43:40.172Z,13.56
2022-10-05T16:46:15.052Z,13.55
2022-10-05T16:48:53.521Z,13.49
2022-10-05T16:51:31.075Z,13.45
2022-10-05T16:54:11.803Z,13.43
2022-10-05T16:56:45.446Z,13.36
2022-10-05T17:00:01.293Z,13.33
2022-10-05T17:02:40.930Z,13.33
2022-10-05T17:05:24.146Z,13.26
2022-10-05T17:08:26.624Z,13.19
2022-10-05T17:11:06.880Z,13.13
2022-10-05T17:13:58.692Z,13.18
2022-10-05T17:16:38.364Z,13.15
2022-10-05T17:19:46.710Z,13.09
2022-10-05T17:22:25.459Z,13.05
2022-10-05T17:25:02.526Z,13.05
2022-10-05T17:27:36.919Z,13.04
2022-10-05T17:30:39.158Z,13.13
2022-10-05T17:33:21.680Z,13.20
2022-10-05T17:36:09.767Z,13.21
2022-10-05T17:38:50.240Z,13.18
2022-10-05T17:41:24.461Z,13.08
2022-10-05T17:44:20.141Z,13.19
2022-10-05T17:46:51.086Z,13.12
2022-10-05T17:49:47.498Z,13.19
2022-10-05T17:52:44.742Z,13.32
2022-10-05T17:55:38.675Z,13.24
2022-10-05T17:59:03.267Z,13.09
2022-10-05T18:01:34.597Z,13.01
2022-10-05T18:04:42.314Z,12.98
2022-10-05T18:07:21.346Z,12.98
2022-10-05T18:10:02.390Z,12.99
2022-10-05T18:12:52.684Z,12.93
2022-10-05T18:15:50.330Z,12.85
2022-10-05T18:18:56.009Z,12.82
2022-10-05T18:21:39.745Z,12.77
2022-10-05T18:24:53.219Z,12.77
2022-10-05T18:28:03.980Z,12.69
2022-10-05T18:30:39.992Z,12.70
2022-10-05T18:33:36.679Z,12.66
2022-10-05T18:36:16.314Z,12.64
2022-10-05T18:38:55.338Z,12.62
2022-10-05T18:41:37.617Z,12.63
2022-10-05T18:44:40.210Z,12.57
2022-10-05T18:47:17.857Z,12.58
2022-10-05T18:50:06.541Z,12.59
2022-10-05T18:52:49.529Z,12.56
2022-10-05T18:55:27.384Z,12.53
2022-10-05T18:58:16.631Z,12.53
2022-10-05T19:01:04.592Z,12.56
2022-10-05T19:03:42.107Z,12.56
2022-10-05T19:06:19.227Z,12.56
2022-10-05T19:08:59.252Z,12.54
2022-10-05T19:11:36.438Z,12.51
2022-10-05T19:14:16.543Z,12.50
2022-10-05T19:17:01.730Z,12.51
2022-10-05T19:20:00.008Z,12.49
2022-10-05T19:22:42.338Z,12.48
2022-10-05T19:25:27.073Z,12.55
2022-10-05T19:28:07.753Z,12.47
2022-10-05T19:30:51.168Z,12.46
2022-10-05T19:33:33.685Z,12.49
2022-10-05T19:36:14.850Z,12.44
2022-10-05T19:38:53.443Z,12.48
2022-10-05T19:41:31.271Z,12.42
2022-10-05T19:44:15.005Z,12.41
2022-10-05T19:46:54.740Z,12.47
2022-10-05T19:49:59.230Z,12.35
2022-10-05T19:52:31.185Z,12.33
2022-10-05T19:55:15.144Z,12.31
2022-10-05T19:57:50.588Z,12.28
2022-10-05T20:00:26.609Z,12.28
2022-10-05T20:03:10.335Z,12.36
2022-10-05T20:05:38.449Z,12.41
2022-10-05T20:08:07.177Z,12.27
2022-10-05T20:10:35.698Z,12.26
2022-10-05T20:13:05.297Z,12.25
2022-10-05T20:15:54.511Z,12.27
2022-10-05T20:19:06.794Z,12.29
2022-10-05T20:21:45.509Z,12.31
2022-10-05T20:24:15.316Z,12.33
2022-10-05T20:27:12.578Z,12.23
2022-10-05T20:29:44.850Z,12.22
2022-10-05T20:32:15.558Z,12.23
2022-10-05T20:34:46.317Z,12.20
2022-10-05T20:37:16.506Z,12.22
2022-10-05T20:39:45.137Z,12.22
2022-10-05T20:42:13.352Z,12.13
2022-10-05T20:44:42.039Z,12.12
2022-10-05T20:47:10.696Z,12.08
2022-10-05T20:49:41.419Z,12.10
2022-10-05T20:52:11.402Z,12.13
2022-10-05T20:54:40.594Z,12.07
2022-10-05T20:57:09.442Z,12.07
2022-10-05T20:59:38.052Z,12.06
2022-10-05T21:02:06.674Z,12.08
2022-10-05T21:04:42.888Z,12.04
2022-10-05T21:07:13.279Z,11.99
2022-10-05T21:09:42.995Z,12.01
2022-10-05T21:12:11.806Z,12.02
2022-10-05T21:14:41.384Z,12.02
2022-10-05T21:17:10.527Z,12.02
2022-10-05T21:19:39.543Z,12.01
2022-10-05T21:22:09.394Z,12.01
2022-10-05T21:24:40.921Z,11.97
2022-10-05T21:27:09.669Z,11.96
2022-10-05T21:29:40.993Z,11.93
2022-10-05T21:32:11.917Z,11.97
2022-10-05T21:34:40.183Z,11.94
2022-10-05T21:37:08.985Z,11.93
2022-10-05T21:39:38.704Z,11.93
2022-10-05T21:42:06.917Z,11.92
2022-10-05T21:44:34.990Z,11.92
2022-10-05T21:47:05.434Z,11.91
2022-10-05T21:49:34.241Z,11.88
2022-10-05T21:52:03.953Z,11.94
2022-10-05T21:54:33.984Z,12.00
2022-10-05T21:57:04.140Z,12.02
2022-10-05T21:59:34.325Z,12.02
2022-10-05T22:02:02.602Z,11.99
2022-10-05T22:04:30.673Z,11.97
2022-10-05T22:06:59.485Z,11.98
2022-10-05T22:09:27.595Z,12.00
2022-10-05T22:11:56.831Z,11.99
2022-10-05T22:14:26.635Z,11.93
2022-10-05T22:16:55.540Z,11.88
2022-10-05T22:19:23.843Z,11.88
2022-10-05T22:21:51.940Z,11.85
2022-10-05T22:24:20.022Z,11.85
2022-10-05T22:26:51.714Z,12.14
2022-10-05T22:29:20.775Z,12.16
2022-10-05T22:31:50.971Z,12.11
2022-10-05T22:34:19.476Z,12.13
2022-10-05T22:36:48.726Z,12.08
2022-10-05T22:39:17.791Z,12.07
2022-10-05T22:41:45.999Z,11.97
2022-10-05T22:44:14.220Z,11.93
2022-10-05T22:46:42.347Z,11.87
2022-10-05T22:49:11.961Z,11.84
2022-10-05T22:51:40.078Z,11.82
2022-10-05T22:54:08.194Z,11.75
2022-10-05T22:56:36.811Z,11.77
2022-10-05T22:59:04.915Z,11.72
2022-10-05T23:01:33.109Z,11.74
2022-10-05T23:04:01.718Z,11.73
2022-10-05T23:06:32.200Z,11.68
2022-10-05T23:09:00.386Z,11.68
2022-10-05T23:11:30.267Z,11.72
2022-10-05T23:14:00.085Z,11.76
2022-10-05T23:16:30.045Z,11.72
2022-10-05T23:18:59.246Z,11.69
2022-10-05T23:21:31.074Z,11.70
2022-10-05T23:23:59.254Z,11.76
2022-10-05T23:26:27.705Z,11.76
2022-10-05T23:28:55.909Z,11.73
2022-10-05T23:31:25.835Z,11.72
2022-10-05T23:33:54.396Z,11.69
2022-10-05T23:36:23.875Z,11.67
2022-10-05T23:38:53.699Z,11.64
2022-10-05T23:41:22.143Z,11.73
2022-10-05T23:43:50.348Z,11.77
2022-10-05T23:46:19.263Z,11.76
2022-10-05T23:48:47.641Z,11.72
2022-10-05T23:51:17.931Z,11.70
2022-10-05T23:53:46.248Z,11.67
2022-10-05T23:56:15.815Z,11.64
2022-10-05T23:58:45.160Z,11.69
